< < Back
Terminal Aerodrome Forecast


Current Version              Previous Versions:   1  2  3  4  5  6  7  8  9  

Terminal Aerodrome Forecast

409
FTUS44 KOHX 270524
TAFCSV
TAF
KCSV 270524Z 2706/2806 VRB04KT P6SM BKN150
     FM271100 00000KT 4SM BR SCT250
     FM271300 18006KT P6SM BKN150=

Latest METAR

555
SAUS70 KWBC 271400 RRE
MTRCSV
METAR KCSV 271353Z AUTO 16006KT 10SM CLR 24/17 A3014 RMK AO2 SLP187
T02440172


USA.gov is the U.S. government's official web portal to all federal, state and local government web resources and services.